Gordon Reid — CGBR — position and weather

sailwx.info

Track history (hours):
 
Tides and Currents Weather Stations Pressure Air Temp Water Temp Dewpoint Dewpoint Depression Visibility Wind Speed Wind Dir Waves Ship Positions

Gordon Reid

Last reported at 2016-Apr-25 19:19 UTC. Time now 2016-Apr-30 09:03 UTC.
Position N 51°01' W 127°51'.

Length 49.95 m; beam 11 m; draft 5.4 m.

Type: SAR. MMSI: 316094000.

Date/timePositionNaut miles runAvg speedWind from/ knotsBaromVisibWave heightAir tempDewpointWater temp
2016-Apr-25 19:19N 51°01' W 127°51'911.8
2016-Apr-25 18:33N 50°55' W 127°40'1211.8
2016-Apr-25 17:33N 50°47' W 127°26'5 0.8
2016-Apr-25 12:07N 50°43' W 127°29'0 0.0
2016-Apr-25 11:31N 50°43' W 127°29'0 0.0
2016-Apr-25 10:31N 50°43' W 127°29'0 0.0
2016-Apr-25 09:25N 50°43' W 127°29'0 0.0
2016-Apr-25 08:19N 50°43' W 127°29'0 0.0
2016-Apr-25 06:25N 50°43' W 127°29'0 0.0
2016-Apr-25 02:19N 50°43' W 127°29'0 0.0
2016-Apr-25 01:31N 50°43' W 127°29'0 0.0
2016-Apr-25 00:31N 50°43' W 127°29'0 0.0
2016-Apr-24 23:31N 50°43' W 127°29'0 0.0
2016-Apr-24 22:31N 50°43' W 127°29'0 0.0
2016-Apr-24 10:31N 50°43' W 127°29'0 0.0
2016-Apr-24 09:19N 50°43' W 127°29'0 0.0
2016-Apr-24 08:31N 50°43' W 127°29'0 0.0
2016-Apr-23 22:25N 50°43' W 127°29'0 0.0
2016-Apr-23 16:25N 50°43' W 127°29'0 0.0
2016-Apr-23 10:13N 50°43' W 127°29'0 0.0
2016-Apr-23 09:31N 50°43' W 127°29'0 0.0
2016-Apr-23 08:31N 50°43' W 127°29'0 0.0
2016-Apr-23 03:31N 50°43' W 127°29'0 0.0
2016-Apr-22 23:31N 50°43' W 127°29'0 0.0
2016-Apr-22 22:31N 50°43' W 127°29'0 0.0
2016-Apr-22 21:31N 50°43' W 127°29'0 0.0
2016-Apr-22 09:25N 50°43' W 127°29'0 0.0
2016-Apr-22 08:13N 50°43' W 127°29'0 0.0
2016-Apr-21 21:25N 50°43' W 127°29'0 0.0
2016-Apr-21 20:31N 50°43' W 127°29'0 0.0
2016-Apr-21 10:13N 50°43' W 127°29'0 0.0
2016-Apr-21 09:31N 50°43' W 127°29'0 0.0
2016-Apr-21 08:31N 50°43' W 127°29'0 0.0
2016-Apr-21 07:31N 50°43' W 127°29'0 0.0
2016-Apr-21 06:31N 50°43' W 127°29'0 0.0
2016-Apr-21 03:28N 50°43' W 127°29'0 0.0
2016-Apr-21 02:28N 50°43' W 127°29'0 0.0
2016-Apr-21 01:28N 50°43' W 127°29'0 0.0
2016-Apr-21 00:28N 50°43' W 127°29'0 0.0
2016-Apr-20 23:28N 50°43' W 127°29'0 0.0
2016-Apr-20 22:28N 50°43' W 127°29'0 0.0
2016-Apr-20 21:22N 50°43' W 127°29'0 0.0
2016-Apr-20 20:28N 50°43' W 127°29'0 0.0
2016-Apr-20 19:28N 50°43' W 127°29'0 0.0
2016-Apr-20 18:28N 50°43' W 127°29'0 0.0
2016-Apr-20 17:33N 50°43' W 127°29'1 1.0
2016-Apr-20 16:24N 50°43' W 127°28'0 0.0
2016-Apr-20 15:30N 50°43' W 127°28'1 1.2
2016-Apr-20 14:33N 50°44' W 127°28'1010.1
2016-Apr-20 13:33N 50°54' W 127°22'1 1.3
2016-Apr-20 12:28N 50°55' W 127°21'0 0.0
2016-Apr-20 11:28N 50°55' W 127°21'0 0.0
2016-Apr-20 10:28N 50°55' W 127°21'0 0.0
2016-Apr-20 09:28N 50°55' W 127°21'0 0.0
2016-Apr-20 08:28N 50°55' W 127°21'0 0.0
2016-Apr-20 07:28N 50°55' W 127°21'0 0.0
2016-Apr-20 06:28N 50°55' W 127°21'0 0.0
2016-Apr-20 05:28N 50°55' W 127°21'0 0.0
2016-Apr-20 04:28N 50°55' W 127°21'0 0.0
2016-Apr-20 03:28N 50°55' W 127°21'0 0.0
2016-Apr-20 02:28N 50°55' W 127°21'0 0.0
2016-Apr-20 01:28N 50°55' W 127°21'0 0.0
2016-Apr-20 00:28N 50°55' W 127°21'1 1.4
2016-Apr-19 23:33N 50°54' W 127°22'9 8.6
2016-Apr-19 22:33N 50°46' W 127°28'3 0.6
2016-Apr-19 18:31N 50°43' W 127°29'1 1.5
2016-Apr-19 17:33N 50°45' W 127°29'1 0.9
2016-Apr-19 16:33N 50°46' W 127°28'1010.0
2016-Apr-19 15:32N 50°55' W 127°21'0 0.0
2016-Apr-19 14:32N 50°55' W 127°21'0 0.0
2016-Apr-19 13:32N 50°55' W 127°21'0 0.0
2016-Apr-19 12:32N 50°55' W 127°21'0 0.0
2016-Apr-19 11:32N 50°55' W 127°21'0 0.0
2016-Apr-19 10:32N 50°55' W 127°21'0 0.0
2016-Apr-19 09:32N 50°55' W 127°21'0 0.0
2016-Apr-19 08:20N 50°55' W 127°21'0 0.0
2016-Apr-19 07:32N 50°55' W 127°21'0 0.0
2016-Apr-19 06:32N 50°55' W 127°21'0 0.0
2016-Apr-19 05:26N 50°55' W 127°21'0 0.0
2016-Apr-19 04:20N 50°55' W 127°21'1 1.4
2016-Apr-19 03:33N 50°54' W 127°22'8 8.2
2016-Apr-19 02:33N 50°52' W 127°35'1111.4
2016-Apr-19 01:33N 51°01' W 127°47'17 7.8
2016-Apr-18 23:25N 51°18' W 127°45'48 2.0
2016-Apr-17 23:14N 52°04' W 128°02'6 8.9
2016-Apr-17 22:33N 52°09' W 128°08'2 1.5
2016-Apr-17 21:30N 52°10' W 128°06'0 0.0
2016-Apr-17 20:24N 52°10' W 128°06'4 4.6
2016-Apr-17 19:33N 52°13' W 128°10'  
Track history (hours):
 
Tides and Currents Weather Stations Pressure Air Temp Water Temp Dewpoint Dewpoint Depression Visibility Wind Speed Wind Dir Waves Ship Positions

Gordon Reid

Last reported at 2016-Apr-25 19:19 UTC. Time now 2016-Apr-30 09:03 UTC.
Position N 51°01' W 127°51'.

Length 49.95 m; beam 11 m; draft 5.4 m.

Type: SAR. MMSI: 316094000.

Date/timePositionNaut miles runAvg speedWind from/ knotsBaromVisibWave heightAir tempDewpointWater temp
2016-Apr-25 19:19N 51°01' W 127°51'911.8
2016-Apr-25 18:33N 50°55' W 127°40'1211.8
2016-Apr-25 17:33N 50°47' W 127°26'5 0.8
2016-Apr-25 12:07N 50°43' W 127°29'0 0.0
2016-Apr-25 11:31N 50°43' W 127°29'0 0.0
2016-Apr-25 10:31N 50°43' W 127°29'0 0.0
2016-Apr-25 09:25N 50°43' W 127°29'0 0.0
2016-Apr-25 08:19N 50°43' W 127°29'0 0.0
2016-Apr-25 06:25N 50°43' W 127°29'0 0.0
2016-Apr-25 02:19N 50°43' W 127°29'0 0.0
2016-Apr-25 01:31N 50°43' W 127°29'0 0.0
2016-Apr-25 00:31N 50°43' W 127°29'0 0.0
2016-Apr-24 23:31N 50°43' W 127°29'0 0.0
2016-Apr-24 22:31N 50°43' W 127°29'0 0.0
2016-Apr-24 10:31N 50°43' W 127°29'0 0.0
2016-Apr-24 09:19N 50°43' W 127°29'0 0.0
2016-Apr-24 08:31N 50°43' W 127°29'0 0.0
2016-Apr-23 22:25N 50°43' W 127°29'0 0.0
2016-Apr-23 16:25N 50°43' W 127°29'0 0.0
2016-Apr-23 10:13N 50°43' W 127°29'0 0.0
2016-Apr-23 09:31N 50°43' W 127°29'0 0.0
2016-Apr-23 08:31N 50°43' W 127°29'0 0.0
2016-Apr-23 03:31N 50°43' W 127°29'0 0.0
2016-Apr-22 23:31N 50°43' W 127°29'0 0.0
2016-Apr-22 22:31N 50°43' W 127°29'0 0.0
2016-Apr-22 21:31N 50°43' W 127°29'0 0.0
2016-Apr-22 09:25N 50°43' W 127°29'0 0.0
2016-Apr-22 08:13N 50°43' W 127°29'0 0.0
2016-Apr-21 21:25N 50°43' W 127°29'0 0.0
2016-Apr-21 20:31N 50°43' W 127°29'0 0.0
2016-Apr-21 10:13N 50°43' W 127°29'0 0.0
2016-Apr-21 09:31N 50°43' W 127°29'0 0.0
2016-Apr-21 08:31N 50°43' W 127°29'0 0.0
2016-Apr-21 07:31N 50°43' W 127°29'0 0.0
2016-Apr-21 06:31N 50°43' W 127°29'0 0.0
2016-Apr-21 03:28N 50°43' W 127°29'0 0.0
2016-Apr-21 02:28N 50°43' W 127°29'0 0.0
2016-Apr-21 01:28N 50°43' W 127°29'0 0.0
2016-Apr-21 00:28N 50°43' W 127°29'0 0.0
2016-Apr-20 23:28N 50°43' W 127°29'0 0.0
2016-Apr-20 22:28N 50°43' W 127°29'0 0.0
2016-Apr-20 21:22N 50°43' W 127°29'0 0.0
2016-Apr-20 20:28N 50°43' W 127°29'0 0.0
2016-Apr-20 19:28N 50°43' W 127°29'0 0.0
2016-Apr-20 18:28N 50°43' W 127°29'0 0.0
2016-Apr-20 17:33N 50°43' W 127°29'1 1.0
2016-Apr-20 16:24N 50°43' W 127°28'0 0.0
2016-Apr-20 15:30N 50°43' W 127°28'1 1.2
2016-Apr-20 14:33N 50°44' W 127°28'1010.1
2016-Apr-20 13:33N 50°54' W 127°22'1 1.3
2016-Apr-20 12:28N 50°55' W 127°21'0 0.0
2016-Apr-20 11:28N 50°55' W 127°21'0 0.0
2016-Apr-20 10:28N 50°55' W 127°21'0 0.0
2016-Apr-20 09:28N 50°55' W 127°21'0 0.0
2016-Apr-20 08:28N 50°55' W 127°21'0 0.0
2016-Apr-20 07:28N 50°55' W 127°21'0 0.0
2016-Apr-20 06:28N 50°55' W 127°21'0 0.0
2016-Apr-20 05:28N 50°55' W 127°21'0 0.0
2016-Apr-20 04:28N 50°55' W 127°21'0 0.0
2016-Apr-20 03:28N 50°55' W 127°21'0 0.0
2016-Apr-20 02:28N 50°55' W 127°21'0 0.0
2016-Apr-20 01:28N 50°55' W 127°21'0 0.0
2016-Apr-20 00:28N 50°55' W 127°21'1 1.4
2016-Apr-19 23:33N 50°54' W 127°22'9 8.6
2016-Apr-19 22:33N 50°46' W 127°28'3 0.6
2016-Apr-19 18:31N 50°43' W 127°29'1 1.5
2016-Apr-19 17:33N 50°45' W 127°29'1 0.9
2016-Apr-19 16:33N 50°46' W 127°28'1010.0
2016-Apr-19 15:32N 50°55' W 127°21'0 0.0
2016-Apr-19 14:32N 50°55' W 127°21'0 0.0
2016-Apr-19 13:32N 50°55' W 127°21'0 0.0
2016-Apr-19 12:32N 50°55' W 127°21'0 0.0
2016-Apr-19 11:32N 50°55' W 127°21'0 0.0
2016-Apr-19 10:32N 50°55' W 127°21'0 0.0
2016-Apr-19 09:32N 50°55' W 127°21'0 0.0
2016-Apr-19 08:20N 50°55' W 127°21'0 0.0
2016-Apr-19 07:32N 50°55' W 127°21'0 0.0
2016-Apr-19 06:32N 50°55' W 127°21'0 0.0
2016-Apr-19 05:26N 50°55' W 127°21'0 0.0
2016-Apr-19 04:20N 50°55' W 127°21'1 1.4
2016-Apr-19 03:33N 50°54' W 127°22'8 8.2
2016-Apr-19 02:33N 50°52' W 127°35'1111.4
2016-Apr-19 01:33N 51°01' W 127°47'17 7.8
2016-Apr-18 23:25N 51°18' W 127°45'48 2.0
2016-Apr-17 23:14N 52°04' W 128°02'6 8.9
2016-Apr-17 22:33N 52°09' W 128°08'2 1.5
2016-Apr-17 21:30N 52°10' W 128°06'0 0.0
2016-Apr-17 20:24N 52°10' W 128°06'4 4.6
2016-Apr-17 19:33N 52°13' W 128°10'  

Dump ship's entire track history